createdAt,value
2023-04-18T00:01:58.535Z,95.50
2023-04-18T00:06:52.875Z,95.30
2023-04-18T00:21:37.316Z,93.80
2023-04-18T00:24:04.195Z,93.80
2023-04-18T00:26:31.009Z,93.70
2023-04-18T00:33:52.449Z,93.70
2023-04-18T00:43:40.722Z,93.80
2023-04-18T00:48:34.905Z,93.70
2023-04-18T00:53:29.309Z,93.70
2023-04-18T00:58:24.056Z,93.80
2023-04-18T01:03:18.882Z,94.00
2023-04-18T01:10:40.756Z,94.20
2023-04-18T01:13:14.618Z,94.50
2023-04-18T01:15:46.156Z,94.40
2023-04-18T01:18:13.895Z,94.60
2023-04-18T01:20:45.809Z,94.70
2023-04-18T01:23:12.791Z,94.80
2023-04-18T01:25:39.741Z,94.80
2023-04-18T01:28:07.223Z,95.20
2023-04-18T01:30:34.446Z,95.10
2023-04-18T01:33:03.144Z,95.20
2023-04-18T01:35:30.522Z,95.40
2023-04-18T01:37:57.898Z,95.80
2023-04-18T01:40:25.206Z,95.70
2023-04-18T01:42:52.223Z,95.80
2023-04-18T01:47:47.161Z,96.10
2023-04-18T01:50:14.488Z,96.20
2023-04-18T01:52:41.343Z,96.30
2023-04-18T01:55:08.608Z,96.60
2023-04-18T01:57:38.305Z,96.30
2023-04-18T02:00:06.949Z,96.20
2023-04-18T02:05:01.377Z,96.70
2023-04-18T02:07:28.169Z,96.80
2023-04-18T02:14:53.408Z,97.00
2023-04-18T02:17:25.668Z,97.10
2023-04-18T02:19:52.385Z,97.30
2023-04-18T02:24:46.418Z,97.30
2023-04-18T02:29:40.542Z,97.30
2023-04-18T02:34:36.595Z,97.70
2023-04-18T02:37:04.155Z,97.80
2023-04-18T02:41:58.757Z,98.20
2023-04-18T03:04:04.957Z,98.50
2023-04-18T03:06:31.852Z,98.40
2023-04-18T03:08:58.688Z,98.50
2023-04-18T03:11:25.360Z,98.90
2023-04-18T03:13:52.098Z,98.90
2023-04-18T03:16:18.916Z,98.90
2023-04-18T03:18:45.748Z,98.90
2023-04-18T03:21:12.561Z,98.80
2023-04-18T03:23:39.266Z,99.10
2023-04-18T03:26:07.502Z,99.20
2023-04-18T03:28:34.440Z,99.30
2023-04-18T03:31:01.298Z,99.30
2023-04-18T03:33:28.802Z,99.30
2023-04-18T03:35:55.613Z,99.40
2023-04-18T03:38:22.458Z,99.70
2023-04-18T03:40:49.328Z,99.90
2023-04-18T03:43:16.185Z,99.90
2023-04-18T03:45:44.195Z,99.90
2023-04-18T03:48:11.088Z,99.90
2023-04-18T03:50:37.778Z,99.90
2023-04-18T03:53:04.506Z,99.90
2023-04-18T03:55:31.369Z,99.90
2023-04-18T03:57:59.156Z,99.90
2023-04-18T04:00:26.403Z,99.90
2023-04-18T04:02:53.300Z,99.90
2023-04-18T04:05:20.171Z,99.90
2023-04-18T04:07:47.190Z,99.90
2023-04-18T04:10:13.922Z,99.90
2023-04-18T04:12:40.574Z,99.90
2023-04-18T04:15:07.743Z,99.90
2023-04-18T04:20:02.157Z,99.90
2023-04-18T04:22:28.817Z,99.90
2023-04-18T04:24:57.820Z,99.90
2023-04-18T04:27:25.104Z,99.90
2023-04-18T04:29:54.685Z,99.90
2023-04-18T04:32:21.657Z,99.90
2023-04-18T04:34:49.396Z,99.90
2023-04-18T04:37:18.650Z,99.90
2023-04-18T04:39:46.267Z,99.90
2023-04-18T04:42:13.347Z,99.90
2023-04-18T04:44:41.685Z,99.90
2023-04-18T04:47:08.545Z,99.90
2023-04-18T04:49:35.555Z,99.90
2023-04-18T04:52:03.047Z,99.90
2023-04-18T04:54:30.357Z,99.90
2023-04-18T04:56:57.229Z,99.90
2023-04-18T04:59:24.017Z,99.90
2023-04-18T05:01:51.011Z,99.90
2023-04-18T05:04:18.558Z,99.90
2023-04-18T05:06:46.171Z,99.90
2023-04-18T05:09:13.469Z,99.90
2023-04-18T05:11:40.310Z,99.90
2023-04-18T05:14:07.272Z,99.90
2023-04-18T05:16:34.103Z,99.90
2023-04-18T05:19:00.956Z,99.90
2023-04-18T05:21:28.715Z,99.90
2023-04-18T05:23:56.310Z,99.90
2023-04-18T05:26:23.312Z,99.90
2023-04-18T05:28:50.511Z,99.90
2023-04-18T05:31:17.344Z,99.90
2023-04-18T05:33:44.219Z,99.90
2023-04-18T05:38:38.179Z,99.90
2023-04-18T05:41:05.014Z,99.90
2023-04-18T05:43:31.834Z,99.90
2023-04-18T05:45:58.570Z,99.90
2023-04-18T05:50:52.541Z,99.90
2023-04-18T05:53:19.297Z,99.90
2023-04-18T05:55:48.589Z,99.90
2023-04-18T05:58:15.795Z,99.90
2023-04-18T06:00:43.091Z,99.90
2023-04-18T06:03:11.192Z,99.90
2023-04-18T06:05:38.578Z,99.90
2023-04-18T06:08:05.990Z,99.90
2023-04-18T06:10:33.110Z,99.90
2023-04-18T06:12:59.791Z,99.90
2023-04-18T06:15:26.472Z,99.90
2023-04-18T06:17:53.296Z,99.90
2023-04-18T06:20:20.201Z,99.90
2023-04-18T06:22:46.953Z,99.90
2023-04-18T06:25:13.786Z,99.90
2023-04-18T06:27:40.571Z,99.90
2023-04-18T06:30:08.253Z,99.90
2023-04-18T06:32:35.248Z,99.90
2023-04-18T06:35:03.692Z,99.90
2023-04-18T06:37:30.545Z,99.90
2023-04-18T06:39:57.246Z,99.90
2023-04-18T06:42:24.024Z,99.90
2023-04-18T06:44:51.134Z,99.90
2023-04-18T06:49:45.113Z,99.90
2023-04-18T06:52:11.884Z,99.90
2023-04-18T06:54:38.583Z,99.90
2023-04-18T06:57:05.496Z,99.90
2023-04-18T06:59:32.231Z,99.90
2023-04-18T07:01:58.981Z,99.90
2023-04-18T07:04:25.867Z,99.90
2023-04-18T07:06:52.748Z,99.90
2023-04-18T07:09:20.056Z,99.90
2023-04-18T07:11:46.812Z,99.90
2023-04-18T07:14:13.749Z,99.90
2023-04-18T07:16:40.723Z,99.90
2023-04-18T07:19:07.487Z,99.90
2023-04-18T07:21:34.195Z,99.90
2023-04-18T07:24:00.873Z,99.90
2023-04-18T07:26:27.712Z,99.90
2023-04-18T07:28:54.443Z,99.90
2023-04-18T07:31:21.262Z,99.90
2023-04-18T07:33:48.178Z,99.90
2023-04-18T07:36:14.933Z,99.90
2023-04-18T07:38:41.817Z,99.90
2023-04-18T07:41:08.527Z,99.90
2023-04-18T07:43:35.918Z,99.90
2023-04-18T07:46:02.812Z,99.90
2023-04-18T07:48:29.577Z,99.90
2023-04-18T07:50:56.255Z,99.90
2023-04-18T07:53:23.016Z,99.90
2023-04-18T07:55:50.188Z,99.90
2023-04-18T07:58:17.561Z,99.90
2023-04-18T08:00:44.907Z,99.90
2023-04-18T08:03:13.069Z,99.90
2023-04-18T08:05:41.778Z,99.90
2023-04-18T08:08:10.200Z,99.90
2023-04-18T08:10:37.539Z,99.90
2023-04-18T08:13:04.637Z,99.90
2023-04-18T08:15:32.724Z,99.90
2023-04-18T08:18:00.552Z,99.90
2023-04-18T08:20:27.651Z,99.90
2023-04-18T08:23:05.661Z,99.90
2023-04-18T08:25:33.546Z,99.90
2023-04-18T08:28:00.449Z,99.90
2023-04-18T08:30:27.318Z,99.90
2023-04-18T08:32:54.215Z,99.90
2023-04-18T08:35:21.207Z,99.90
2023-04-18T08:40:15.102Z,99.90
2023-04-18T08:42:44.797Z,99.90
2023-04-18T08:45:16.587Z,99.90
2023-04-18T08:47:43.410Z,99.90
2023-04-18T08:50:10.809Z,99.90
2023-04-18T08:52:40.119Z,99.90
2023-04-18T08:55:07.623Z,99.90
2023-04-18T08:57:36.197Z,99.90
2023-04-18T09:00:09.958Z,99.80
2023-04-18T09:02:45.216Z,99.40
2023-04-18T09:05:19.758Z,99.40
2023-04-18T09:07:51.471Z,98.60
2023-04-18T09:10:36.570Z,98.00
2023-04-18T09:13:04.293Z,97.50
2023-04-18T09:15:31.339Z,96.40
2023-04-18T09:18:00.475Z,96.30
2023-04-18T09:20:41.114Z,94.80
2023-04-18T09:23:14.681Z,94.90
2023-04-18T09:25:44.580Z,94.60
2023-04-18T09:28:29.804Z,93.80
2023-04-18T09:30:58.841Z,93.60
2023-04-18T09:33:28.265Z,93.20
2023-04-18T09:35:57.069Z,93.70
2023-04-18T09:38:40.425Z,93.20
2023-04-18T09:41:09.019Z,92.70
2023-04-18T09:46:04.465Z,93.30
2023-04-18T09:48:31.427Z,92.90
2023-04-18T09:51:01.579Z,92.50
2023-04-18T09:53:29.838Z,92.20
2023-04-18T09:55:57.904Z,91.70
2023-04-18T09:58:28.516Z,91.00
2023-04-18T10:00:56.336Z,90.10
2023-04-18T10:03:32.667Z,90.60
2023-04-18T10:05:59.554Z,90.20
2023-04-18T10:08:27.242Z,90.60
2023-04-18T10:10:55.960Z,90.90
2023-04-18T10:13:23.896Z,90.30
2023-04-18T10:15:52.381Z,90.70
2023-04-18T10:18:23.384Z,90.10
2023-04-18T10:20:50.202Z,89.60
2023-04-18T10:23:32.297Z,88.80
2023-04-18T10:25:59.491Z,88.90
2023-04-18T10:28:27.705Z,88.70
2023-04-18T10:31:02.862Z,89.50
2023-04-18T10:33:35.603Z,88.80
2023-04-18T10:36:08.957Z,88.70
2023-04-18T10:38:38.838Z,88.30
2023-04-18T10:41:32.931Z,88.40
2023-04-18T10:44:09.076Z,89.00
2023-04-18T10:46:40.016Z,89.70
2023-04-18T10:49:26.272Z,89.60
2023-04-18T10:51:54.697Z,89.30
2023-04-18T10:54:47.865Z,89.50
2023-04-18T10:57:15.257Z,89.40
2023-04-18T10:59:43.751Z,89.10
2023-04-18T11:02:25.848Z,88.40
2023-04-18T11:04:57.730Z,87.20
2023-04-18T11:07:34.238Z,85.30
2023-04-18T11:10:02.055Z,84.90
2023-04-18T11:12:34.170Z,84.30
2023-04-18T11:15:04.128Z,83.40
2023-04-18T11:17:32.845Z,83.00
2023-04-18T11:20:01.734Z,83.40
2023-04-18T11:22:28.610Z,82.90
2023-04-18T11:25:00.085Z,82.90
2023-04-18T11:27:27.025Z,82.20
2023-04-18T11:29:54.997Z,82.00
2023-04-18T11:32:24.389Z,82.70
2023-04-18T11:34:53.355Z,82.70
2023-04-18T11:37:20.618Z,82.90
2023-04-18T11:39:47.786Z,83.80
2023-04-18T11:42:14.766Z,83.90
2023-04-18T11:44:46.060Z,84.10
2023-04-18T11:47:43.228Z,84.10
2023-04-18T11:50:12.683Z,84.20
2023-04-18T11:52:42.753Z,83.00
2023-04-18T11:55:13.696Z,82.40
2023-04-18T11:57:41.779Z,82.40
2023-04-18T12:00:10.116Z,83.20
2023-04-18T12:02:43.293Z,83.50
2023-04-18T12:05:11.959Z,84.60
2023-04-18T12:07:39.962Z,84.50
2023-04-18T12:10:23.412Z,84.90
2023-04-18T12:12:52.115Z,84.90
2023-04-18T12:15:19.964Z,84.50
2023-04-18T12:17:48.600Z,85.20
2023-04-18T12:20:16.139Z,84.90
2023-04-18T12:22:49.495Z,85.00
2023-04-18T12:25:27.290Z,85.00
2023-04-18T12:28:03.576Z,85.70
2023-04-18T12:30:37.372Z,85.30
2023-04-18T12:33:04.934Z,85.50
2023-04-18T12:35:32.227Z,84.90
2023-04-18T12:38:00.894Z,84.50
2023-04-18T12:40:28.793Z,85.00
2023-04-18T12:42:56.392Z,84.10
2023-04-18T12:45:23.731Z,84.20
2023-04-18T12:47:52.315Z,83.70
2023-04-18T12:50:21.307Z,81.40
2023-04-18T12:52:48.377Z,81.70
2023-04-18T12:55:15.787Z,81.30
2023-04-18T12:57:42.949Z,81.60
2023-04-18T13:00:11.400Z,81.30
2023-04-18T13:02:40.302Z,80.80
2023-04-18T13:05:11.764Z,81.00
2023-04-18T13:07:40.540Z,81.30
2023-04-18T13:10:12.478Z,81.20
2023-04-18T13:12:40.679Z,81.80
2023-04-18T13:15:11.014Z,80.30
2023-04-18T13:17:41.304Z,80.10
2023-04-18T13:20:13.026Z,79.90
2023-04-18T13:22:41.268Z,80.60
2023-04-18T13:25:10.616Z,81.20
2023-04-18T13:27:40.916Z,81.50
2023-04-18T13:30:10.605Z,81.90
2023-04-18T13:32:39.159Z,82.40
2023-04-18T13:35:09.097Z,82.90
2023-04-18T13:37:36.722Z,83.00
2023-04-18T13:40:07.961Z,82.40
2023-04-18T13:42:37.368Z,82.50
2023-04-18T13:45:04.450Z,82.40
2023-04-18T13:47:31.397Z,82.20
2023-04-18T13:49:58.438Z,81.90
2023-04-18T13:52:25.855Z,81.60
2023-04-18T13:54:52.854Z,82.10
2023-04-18T13:57:19.723Z,82.20
2023-04-18T13:59:46.812Z,81.70
2023-04-18T14:02:13.934Z,81.30
2023-04-18T14:04:40.982Z,81.90
2023-04-18T14:07:08.109Z,81.70
2023-04-18T14:09:35.043Z,82.30
2023-04-18T14:12:02.137Z,81.80
2023-04-18T14:14:29.243Z,81.20
2023-04-18T14:16:56.025Z,81.20
2023-04-18T14:19:22.826Z,81.70
2023-04-18T14:21:49.552Z,81.80
2023-04-18T14:24:16.542Z,82.60
2023-04-18T14:26:43.976Z,82.30
2023-04-18T14:29:11.150Z,82.80
2023-04-18T14:31:38.169Z,83.00
2023-04-18T14:34:05.638Z,82.70
2023-04-18T14:36:32.728Z,82.80
2023-04-18T14:38:59.558Z,83.30
2023-04-18T14:41:26.459Z,83.10
2023-04-18T14:43:53.327Z,82.80
2023-04-18T14:46:21.461Z,82.30
2023-04-18T14:48:48.289Z,82.10
2023-04-18T14:51:16.484Z,81.70
2023-04-18T14:53:44.246Z,82.40
2023-04-18T14:58:38.203Z,82.30
2023-04-18T15:01:05.319Z,82.10
2023-04-18T15:03:32.404Z,81.80
2023-04-18T15:08:26.813Z,82.00
2023-04-18T15:10:53.781Z,81.70
2023-04-18T15:13:20.698Z,81.40
2023-04-18T15:15:56.921Z,81.30
2023-04-18T15:20:51.712Z,81.30
2023-04-18T15:25:47.769Z,80.70
2023-04-18T15:28:14.558Z,80.60
2023-04-18T15:33:08.719Z,80.90
2023-04-18T15:38:02.959Z,81.30
2023-04-18T15:40:29.855Z,80.90
2023-04-18T15:42:57.830Z,80.90
2023-04-18T15:47:52.673Z,79.90
2023-04-18T15:50:19.649Z,79.90
2023-04-18T15:52:46.442Z,80.30
2023-04-18T15:55:13.611Z,80.40
2023-04-18T15:57:41.736Z,80.70
2023-04-18T16:02:44.153Z,81.00
2023-04-18T16:05:12.430Z,81.10
2023-04-18T16:07:40.433Z,80.80
2023-04-18T16:10:10.180Z,81.00
2023-04-18T16:12:37.896Z,81.70
2023-04-18T16:15:09.458Z,81.20
2023-04-18T16:17:37.479Z,81.20
2023-04-18T16:20:09.026Z,81.10
2023-04-18T16:22:36.741Z,81.20
2023-04-18T16:25:04.703Z,81.10
2023-04-18T16:29:59.029Z,81.50
2023-04-18T16:34:53.208Z,81.20
2023-04-18T16:37:20.316Z,81.50
2023-04-18T16:39:47.275Z,81.90
2023-04-18T16:44:45.988Z,82.20
2023-04-18T16:49:40.636Z,82.30
2023-04-18T16:59:29.557Z,83.00
2023-04-18T17:01:56.559Z,83.00
2023-04-18T17:06:53.877Z,83.50
2023-04-18T17:09:20.707Z,84.10
2023-04-18T17:11:47.389Z,83.80
2023-04-18T17:16:42.623Z,83.80
2023-04-18T17:19:10.311Z,84.50
2023-04-18T17:21:38.115Z,84.80
2023-04-18T17:24:07.014Z,85.10
2023-04-18T17:26:34.924Z,85.00
2023-04-18T17:29:04.024Z,85.10
2023-04-18T17:31:34.135Z,85.50
2023-04-18T17:38:55.859Z,86.10
2023-04-18T17:43:53.478Z,86.60
2023-04-18T17:48:47.726Z,86.70
2023-04-18T17:56:10.847Z,87.40
2023-04-18T17:58:37.607Z,87.50
2023-04-18T18:01:13.378Z,87.60
2023-04-18T18:03:40.594Z,87.70
2023-04-18T18:08:34.692Z,88.00
2023-04-18T18:11:02.882Z,88.30
2023-04-18T18:13:29.706Z,88.30
2023-04-18T18:15:57.579Z,88.40
2023-04-18T18:18:24.610Z,88.40
2023-04-18T18:20:51.603Z,88.60
2023-04-18T18:30:40.103Z,89.10
2023-04-18T18:35:35.030Z,89.90
2023-04-18T18:40:29.038Z,90.60
2023-04-18T18:42:59.087Z,90.90
2023-04-18T18:45:26.047Z,91.10
2023-04-18T18:57:43.033Z,92.90
2023-04-18T19:02:40.464Z,93.20
2023-04-18T19:05:08.098Z,93.40
2023-04-18T19:12:30.360Z,94.00
2023-04-18T19:14:57.242Z,94.10
2023-04-18T19:17:24.870Z,94.00
2023-04-18T19:19:52.663Z,94.30
2023-04-18T19:27:13.878Z,94.20
2023-04-18T19:29:46.752Z,94.30
2023-04-18T19:32:13.555Z,94.30
2023-04-18T19:44:32.391Z,94.60
2023-04-18T19:49:26.371Z,94.80
2023-04-18T19:51:53.226Z,94.90
2023-04-18T19:54:21.882Z,94.80
2023-04-18T19:59:16.432Z,94.60
2023-04-18T20:06:38.105Z,94.90
2023-04-18T20:11:33.401Z,94.90
2023-04-18T20:14:00.683Z,94.70
2023-04-18T20:16:27.940Z,94.70
2023-04-18T20:23:51.822Z,94.90
2023-04-18T20:26:19.400Z,95.20
2023-04-18T20:41:04.195Z,95.10
2023-04-18T20:43:37.226Z,95.10
2023-04-18T20:53:27.071Z,95.20
2023-04-18T20:55:54.285Z,95.10
2023-04-18T21:00:48.916Z,95.60
2023-04-18T21:03:16.284Z,95.50
2023-04-18T21:05:44.024Z,95.90
2023-04-18T21:08:13.876Z,95.70
2023-04-18T21:10:40.673Z,95.50
2023-04-18T21:13:09.168Z,95.50
2023-04-18T21:15:36.304Z,95.50
2023-04-18T21:18:03.170Z,95.30
2023-04-18T21:20:29.950Z,95.20
2023-04-18T21:22:56.730Z,94.80
2023-04-18T21:25:23.409Z,94.80
2023-04-18T21:27:50.849Z,94.80
2023-04-18T21:30:17.789Z,95.10
2023-04-18T21:32:46.062Z,95.30
2023-04-18T21:35:13.130Z,95.20
2023-04-18T21:37:39.829Z,95.30
2023-04-18T21:40:07.430Z,95.10
2023-04-18T21:42:35.423Z,95.10
2023-04-18T21:45:02.415Z,94.90
2023-04-18T21:47:29.186Z,95.10
2023-04-18T21:49:55.949Z,94.80
2023-04-18T21:52:22.841Z,94.40
2023-04-18T21:54:49.631Z,94.50
2023-04-18T21:57:16.403Z,94.40
2023-04-18T21:59:43.128Z,94.50
2023-04-18T22:04:38.134Z,94.40
2023-04-18T22:07:05.028Z,94.30
2023-04-18T22:09:34.364Z,94.20
2023-04-18T22:12:03.665Z,94.40
2023-04-18T22:14:32.227Z,94.60
2023-04-18T22:16:59.113Z,94.70
2023-04-18T22:19:29.414Z,94.80
2023-04-18T22:21:56.452Z,94.60
2023-04-18T22:24:24.583Z,94.60
2023-04-18T22:26:51.594Z,94.70
2023-04-18T22:29:18.329Z,94.70
2023-04-18T22:31:45.347Z,94.80
2023-04-18T22:34:12.167Z,94.70
2023-04-18T22:36:38.991Z,94.40
2023-04-18T22:39:06.293Z,94.60
2023-04-18T22:41:33.096Z,94.70
2023-04-18T22:43:59.837Z,94.70
2023-04-18T22:46:27.224Z,94.60
2023-04-18T22:48:54.260Z,94.70
2023-04-18T22:51:21.035Z,94.50
2023-04-18T22:53:47.738Z,94.60
2023-04-18T22:56:14.519Z,94.60
2023-04-18T22:58:41.212Z,94.80
2023-04-18T23:03:35.368Z,95.20
2023-04-18T23:06:02.153Z,95.40
2023-04-18T23:08:28.969Z,95.60
2023-04-18T23:10:55.842Z,95.40
2023-04-18T23:13:22.909Z,95.30
2023-04-18T23:15:49.788Z,95.60
2023-04-18T23:18:16.555Z,95.80
2023-04-18T23:20:43.250Z,95.80
2023-04-18T23:23:09.953Z,95.70
2023-04-18T23:28:03.991Z,95.70
2023-04-18T23:32:57.886Z,95.80
2023-04-18T23:35:24.639Z,95.80
2023-04-18T23:37:51.367Z,96.00
2023-04-18T23:40:18.213Z,96.00
2023-04-18T23:42:45.029Z,96.10
2023-04-18T23:45:12.103Z,96.00
2023-04-18T23:47:38.858Z,96.00
2023-04-18T23:50:06.131Z,96.20
2023-04-18T23:52:32.837Z,96.30
2023-04-18T23:55:00.764Z,96.20
2023-04-18T23:57:27.764Z,96.20
2023-04-18T23:59:54.424Z,96.40
